Lexington, NE

6:20 AM CST on November 18, 2017 (GMT -0600)
Kelly

Weather History for KLXN - April, 2014

Change the Weather History Date:

Monday, April 14, 2014

  Actual Average Record
Temperature  
Mean Temperature 34 °F -  
Max Temperature 45 °F 59 °F 84 °F (2002)
Min Temperature 25 °F 34 °F 25 °F (2014)
Degree Days  
Heating Degree Days 30    
Moisture  
Dew Point 21 °F    
Average Humidity 59    
Maximum Humidity 76    
Minimum Humidity 40    
Precipitation  
Precipitation 0.00 in - - ()
Sea Level Pressure  
Sea Level Pressure 30.19 in    
Wind  
Wind Speed 17 mph (NNW)    
Max Wind Speed 26 mph    
Max Gust Speed 36 mph    
Visibility 10 miles    
Events      
Averages and records for this station are not official NWS values.
T = Trace of Precipitation, MM = Missing Value Source: NWS Daily Summary

Daily Weather History Graph

Daily Weather History Graph

Search for Another Location

Airport or City:

Trip Planner

Search our weather history database for the weather conditions in past years. The results will help you decide how hot, cold, wet, or windy it might be!

Date:

Astronomy

Apr. 14, 2014 Rise Set
Actual Time 7:01 AM CDT 8:17 PM CDT
Civil Twilight 6:33 AM CDT 8:46 PM CDT
Nautical Twilight 5:59 AM CDT 9:20 PM CDT
Astronomical Twilight 5:23 AM CDT 9:55 PM CDT
Moon 7:58 PM CDT (4/14) 6:35 AM CDT (4/14)
Length of Visible Light 14h 12m
Length of Day
13h 15m
Full, 100% of the Moon is Illuminated
Apr 14
Full
Apr 15
Full
Apr 22
Last Quarter
Apr 29
New
May 6
First Quarter

Hourly Weather History & Observations

Time (CDT) Temp. Windchill Dew Point Humidity Pressure Visibility Wind Dir Wind Speed Gust Speed Precip Events Conditions
12:15 AM 32.0 °F 19.2 °F 24.3 °F 73% 30.10 in 10.0 mi North 23.0 mph 27.6 mph N/A   Overcast
3:15 AM 29.3 °F 15.6 °F 21.0 °F 71% 30.14 in 7.0 mi North 23.0 mph 29.9 mph N/A   Overcast
3:35 AM 28.8 °F 14.0 °F 20.3 °F 71% 30.14 in 5.0 mi North 26.5 mph 35.7 mph N/A   Haze
4:20 AM 28.6 °F 14.6 °F 19.8 °F 70% 30.17 in 10.0 mi North 23.0 mph 29.9 mph N/A   Overcast
4:35 AM 28.4 °F 14.4 °F 19.4 °F 69% 30.18 in 10.0 mi North 23.0 mph - N/A   Overcast
4:55 AM 28.4 °F 14.1 °F 18.3 °F 66% 30.18 in 10.0 mi North 24.2 mph 28.8 mph N/A   Overcast
5:15 AM 28.4 °F 16.2 °F 18.3 °F 66% 30.18 in 10.0 mi North 17.3 mph 24.2 mph N/A   Overcast
5:35 AM 28.0 °F 15.7 °F 18.5 °F 67% 30.18 in 10.0 mi North 17.3 mph - N/A   Overcast
5:55 AM 28.0 °F 14.6 °F 17.6 °F 65% 30.19 in 10.0 mi North 20.7 mph - N/A   Overcast
6:15 AM 27.5 °F 16.3 °F 18.1 °F 68% 30.20 in 10.0 mi North 13.8 mph - N/A   Overcast
6:35 AM 27.5 °F 16.3 °F 18.1 °F 68% 30.21 in 10.0 mi NNW 13.8 mph - N/A   Overcast
6:55 AM 27.3 °F 15.2 °F 18.7 °F 70% 30.22 in 10.0 mi NNW 16.1 mph - N/A   Overcast
7:15 AM 27.1 °F 14.1 °F 18.5 °F 70% 30.22 in 10.0 mi NNW 18.4 mph 23.0 mph N/A   Overcast
7:35 AM 26.6 °F 15.7 °F 18.5 °F 71% 30.23 in 10.0 mi NNW 12.7 mph - N/A   Scattered Clouds
7:55 AM 26.1 °F 15.6 °F 18.5 °F 73% 30.24 in 10.0 mi NNW 11.5 mph - N/A   Scattered Clouds
8:15 AM 25.7 °F 14.6 °F 18.5 °F 74% 30.24 in 10.0 mi NW 12.7 mph - N/A   Clear
8:35 AM 25.7 °F 14.6 °F 18.5 °F 74% 30.25 in 10.0 mi NW 12.7 mph - N/A   Clear
8:55 AM 25.7 °F 17.1 °F 19.2 °F 76% 30.26 in 10.0 mi NW 8.1 mph - N/A   Clear
9:15 AM 26.6 °F 15.2 °F 19.8 °F 75% 30.26 in 10.0 mi NW 13.8 mph - N/A   Clear
9:35 AM 28.2 °F 16.3 °F 19.6 °F 70% 30.26 in 10.0 mi NNW 16.1 mph - N/A   Clear
9:55 AM 29.1 °F 19.4 °F 20.8 °F 71% 30.26 in 10.0 mi NW 11.5 mph - N/A   Clear
10:15 AM 30.2 °F 20.8 °F 20.8 °F 68% 30.26 in 10.0 mi NNW 11.5 mph - N/A   Clear
10:35 AM 31.5 °F 21.4 °F 20.5 °F 64% 30.26 in 10.0 mi NW 13.8 mph - N/A   Clear
10:55 AM 32.0 °F 22.5 °F 20.5 °F 63% 30.26 in 10.0 mi NW 12.7 mph - N/A   Clear
11:15 AM 32.4 °F 23.0 °F 21.7 °F 65% 30.26 in 10.0 mi WNW 12.7 mph 16.1 mph N/A   Clear
11:35 AM 33.3 °F 24.1 °F 22.1 °F 64% 30.26 in 10.0 mi West 12.7 mph - N/A   Clear
11:55 AM 34.5 °F 26.2 °F 23.0 °F 63% 30.25 in 10.0 mi WNW 11.5 mph - N/A   Clear
12:15 PM 35.6 °F 27.5 °F 23.4 °F 61% 30.24 in 10.0 mi West 11.5 mph - N/A   Clear
12:35 PM 37.4 °F 29.8 °F 24.3 °F 59% 30.24 in 10.0 mi West 11.5 mph - N/A   Clear
12:55 PM 38.5 °F 31.1 °F 23.7 °F 55% 30.22 in 10.0 mi West 11.5 mph - N/A   Clear
1:15 PM 39.9 °F 31.4 °F 23.0 °F 51% 30.20 in 10.0 mi NW 16.1 mph 23.0 mph N/A   Scattered Clouds
1:35 PM 41.4 °F 34.0 °F 23.2 °F 48% 30.19 in 10.0 mi WNW 13.8 mph 23.0 mph N/A   Scattered Clouds
1:55 PM 40.5 °F 31.2 °F 22.1 °F 48% 30.18 in 10.0 mi NW 19.6 mph 25.3 mph N/A   Mostly Cloudy
2:15 PM 40.6 °F 31.4 °F 23.5 °F 51% 30.18 in 10.0 mi NW 19.6 mph 24.2 mph N/A   Mostly Cloudy
2:35 PM 43.0 °F 35.1 °F 24.3 °F 48% 30.17 in 10.0 mi West 17.3 mph 31.1 mph N/A   Scattered Clouds
2:55 PM 41.9 °F 32.8 °F 23.9 °F 49% 30.17 in 10.0 mi NW 20.7 mph 31.1 mph N/A   Scattered Clouds
3:15 PM 43.9 °F 35.2 °F 22.5 °F 43% 30.16 in 10.0 mi NW 21.9 mph 31.1 mph N/A   Scattered Clouds
3:35 PM 43.2 °F 34.2 °F 22.5 °F 44% 30.15 in 10.0 mi WNW 21.9 mph 31.1 mph N/A   Scattered Clouds
3:55 PM 43.5 °F 35.0 °F 23.5 °F 45% 30.15 in 10.0 mi NW 20.7 mph 35.7 mph N/A   Scattered Clouds
4:15 PM 44.4 °F 35.1 °F 22.5 °F 42% 30.14 in 10.0 mi NNW 26.5 mph 32.2 mph N/A   Scattered Clouds
4:35 PM 44.8 °F 35.7 °F 23.0 °F 42% 30.14 in 10.0 mi NW 25.3 mph 32.2 mph N/A   Scattered Clouds
4:55 PM 44.6 °F 35.9 °F 24.4 °F 45% 30.13 in 10.0 mi NNW 23.0 mph 28.8 mph N/A   Scattered Clouds
5:15 PM 44.6 °F 36.1 °F 23.4 °F 43% 30.13 in 10.0 mi NNW 21.9 mph 32.2 mph N/A   Clear
5:35 PM 44.6 °F 36.6 °F 22.1 °F 41% 30.13 in 10.0 mi NNW 19.6 mph 31.1 mph N/A   Scattered Clouds
5:55 PM 42.8 °F 33.5 °F 23.2 °F 46% 30.13 in 10.0 mi NNW 23.0 mph 26.5 mph N/A   Scattered Clouds
6:15 PM 44.1 °F 36.2 °F 22.3 °F 42% 30.13 in 10.0 mi NNW 18.4 mph 27.6 mph N/A   Clear
6:35 PM 44.8 °F 37.4 °F 23.5 °F 43% 30.13 in 10.0 mi NNW 17.3 mph 21.9 mph N/A   Mostly Cloudy
6:55 PM 44.4 °F 37.2 °F 21.2 °F 40% 30.13 in 10.0 mi NNW 16.1 mph 25.3 mph N/A   Scattered Clouds
7:15 PM 43.2 °F 34.7 °F 21.7 °F 43% 30.13 in 10.0 mi NNW 19.6 mph 25.3 mph N/A   Clear
7:35 PM 41.9 °F 34.3 °F 21.4 °F 44% 30.13 in 10.0 mi NNW 15.0 mph 20.7 mph N/A   Clear
7:55 PM 40.6 °F 33.4 °F 20.8 °F 45% 30.13 in 10.0 mi North 12.7 mph - N/A   Clear
8:15 PM 38.5 °F 31.6 °F 21.4 °F 50% 30.13 in 10.0 mi North 10.4 mph - N/A   Clear
8:35 PM 37.4 °F 30.3 °F 20.1 °F 50% 30.13 in 10.0 mi North 10.4 mph - N/A   Clear
8:55 PM 36.1 °F 28.7 °F 21.0 °F 54% 30.14 in 10.0 mi North 10.4 mph - N/A   Clear
9:15 PM 34.5 °F 27.9 °F 22.1 °F 61% 30.15 in 10.0 mi North 8.1 mph - N/A   Clear
9:35 PM 33.8 °F 27.0 °F 21.7 °F 61% 30.17 in 10.0 mi North 8.1 mph - N/A   Clear
9:55 PM 32.7 °F 26.4 °F 22.1 °F 65% 30.17 in 10.0 mi North 6.9 mph - N/A   Clear
10:15 PM 32.0 °F 26.4 °F 22.5 °F 68% 30.18 in 10.0 mi North 5.8 mph - N/A   Clear
10:35 PM 31.5 °F - 22.3 °F 69% 30.18 in 10.0 mi Calm Calm - N/A   Clear
10:55 PM 31.5 °F 28.1 °F 22.6 °F 70% 30.18 in 10.0 mi West 3.5 mph - N/A   Clear
11:15 PM 30.2 °F - 23.2 °F 75% 30.18 in 10.0 mi Calm Calm - N/A   Clear
11:35 PM 31.1 °F 26.4 °F 21.2 °F 67% 30.18 in 10.0 mi West 4.6 mph - N/A   Clear
11:55 PM 30.2 °F 25.4 °F 21.7 °F 71% 30.18 in 10.0 mi West 4.6 mph - N/A   Clear